Time;durP1;ratioP1;P1;durP2;ratioP2;P2;SDS_P1;SDS_P2;PMS_P1;PMS_P2;Temp;Humidity;BMP_temperature;BMP_pressure;BME280_temperature;BME280_humidity;BME280_pressure;Samples;Min_cycle;Max_cycle;Signal;HPM_P1;HPM_P2
2022/05/11 00:00:02;;;;;;;;;;;;;;;;;;5056550;28;19912;-76
2022/05/11 00:02:28;;;;;;;;;;;;;;;;;;5056223;28;19905;-75
2022/05/11 00:04:54;;;;;;;;;;;;;;;;;;5038235;28;19905;-79
2022/05/11 00:07:20;;;;;;;;;;;;;;;;;;5038227;28;19935;-74
2022/05/11 00:09:46;;;;;;;;;;;;;;;;;;5038132;28;19905;-75
2022/05/11 00:12:12;;;;;;;;;;;;;;;;;;5056561;28;19911;-74
2022/05/11 00:14:38;;;;;;;;;;;;;;;;;;5055929;28;19908;-74
2022/05/11 00:17:04;;;;;;;;;;;;;;;;;;5055207;28;19999;-74
2022/05/11 00:19:30;;;;;;;;;;;;;;;;;;5055869;28;19931;-76
2022/05/11 00:21:56;;;;;;;;;;;;;;;;;;5056390;28;20349;-75
2022/05/11 00:24:21;;;;;;;;;;;;;;;;;;5055735;28;19917;-75
2022/05/11 00:26:47;;;;;;;;;;;;;;;;;;5055699;28;20327;-76
2022/05/11 00:29:13;;;;;;;;;;;;;;;;;;5055966;28;19987;-74
2022/05/11 00:31:39;;;;;;;;;;;;;;;;;;5055609;28;20000;-76
2022/05/11 00:34:05;;;;;;;;;;;;;;;;;;5056161;28;20367;-76
2022/05/11 00:36:31;;;;;;;;;;;;;;;;;;5037619;28;19909;-76
2022/05/11 00:38:57;;;;;;;;;;;;;;;;;;5055523;28;19908;-76
2022/05/11 00:41:23;;;;;;;;;;;;;;;;;;5056069;28;19905;-77
2022/05/11 00:43:48;;;;;;;;;;;;;;;;;;5055427;28;19904;-75
2022/05/11 00:46:14;;;;;;;;;;;;;;;;;;5055958;28;20342;-76
2022/05/11 00:51:25;;;;;;;;;;;;;;;;;;5055380;28;19951;-74
2022/05/11 00:53:51;;;;;;;;;;;;;;;;;;5037428;28;19905;-75
2022/05/11 00:56:16;;;;;;;;;;;;;;;;;;5055369;28;19961;-76
2022/05/11 00:58:42;;;;;;;;;;;;;;;;;;5055094;28;20277;-77
2022/05/11 01:01:08;;;;;;;;;;;;;;;;;;5037163;28;19905;-76
2022/05/11 01:03:34;;;;;;;;;;;;;;;;;;5055026;28;19905;-76
2022/05/11 01:06:00;;;;;;;;;;;;;;;;;;5054961;28;19904;-77
2022/05/11 01:08:26;;;;;;;;;;;;;;;;;;5055249;28;19911;-76
2022/05/11 01:10:52;;;;;;;;;;;;;;;;;;5054926;28;20357;-78
2022/05/11 01:13:18;;;;;;;;;;;;;;;;;;5036763;28;19905;-79
2022/05/11 01:15:44;;;;;;;;;;;;;;;;;;5054817;28;19940;-77
2022/05/11 01:18:10;;;;;;;;;;;;;;;;;;5054770;28;20435;-78
2022/05/11 01:20:37;;;;;;;;;;;;;;;;;;5054988;28;19904;-77
2022/05/11 01:23:02;;;;;;;;;;;;;;;;;;5054686;28;19947;-76
2022/05/11 01:25:28;;;;;;;;;;;;;;;;;;5054220;28;20309;-75
2022/05/11 01:27:54;;;;;;;;;;;;;;;;;;5053661;28;20365;-76
2022/05/11 01:30:20;;;;;;;;;;;;;;;;;;5054534;28;19905;-77
2022/05/11 01:32:46;;;;;;;;;;;;;;;;;;5055044;28;20421;-76
2022/05/11 01:35:12;;;;;;;;;;;;;;;;;;5054363;28;19915;-75
2022/05/11 01:37:38;;;;;;;;;;;;;;;;;;5054663;28;20282;-73
2022/05/11 01:40:04;;;;;;;;;;;;;;;;;;5054348;28;19905;-77
2022/05/11 01:42:30;;;;;;;;;;;;;;;;;;5054347;28;19912;-75
2022/05/11 01:44:55;;;;;;;;;;;;;;;;;;5054534;28;19905;-76
2022/05/11 01:47:21;;;;;;;;;;;;;;;;;;5054517;28;19958;-75
2022/05/11 01:49:47;;;;;;;;;;;;;;;;;;5054779;28;19978;-77
2022/05/11 01:52:13;;;;;;;;;;;;;;;;;;5036268;28;19908;-78
2022/05/11 01:54:39;;;;;;;;;;;;;;;;;;5036185;28;20289;-77
2022/05/11 01:57:05;;;;;;;;;;;;;;;;;;5054094;28;19905;-75
2022/05/11 01:59:31;;;;;;;;;;;;;;;;;;5054585;28;19959;-78
2022/05/11 02:01:57;;;;;;;;;;;;;;;;;;5053981;28;20379;-77
2022/05/11 02:09:52;;;;;;;;;;;;;;;;;;5053926;28;19996;-79
2022/05/11 02:12:18;;;;;;;;;;;;;;;;;;5035927;28;19944;-74
2022/05/11 02:14:44;;;;;;;;;;;;;;;;;;5035744;28;20361;-76
2022/05/11 02:17:12;;;;;;;;;;;;;;;;;;5053770;28;19955;-76
2022/05/11 02:19:38;;;;;;;;;;;;;;;;;;5053739;28;19912;-75
2022/05/11 02:22:04;;;;;;;;;;;;;;;;;;5053986;28;19904;-74
2022/05/11 02:24:30;;;;;;;;;;;;;;;;;;5052987;28;19916;-79
2022/05/11 02:26:55;;;;;;;;;;;;;;;;;;5073975;28;19993;-73
2022/05/11 02:29:23;;;;;;;;;;;;;;;;;;5073654;28;19905;-75
2022/05/11 02:31:49;;;;;;;;;;;;;;;;;;5072371;28;20375;-76
2022/05/11 02:35:12;;;;;;;;;;;;;;;;;;5074165;28;19904;-75
2022/05/11 02:37:00;;;;;;;;;;;;;;;;;;5073386;28;19944;-77
2022/05/11 02:39:26;;;;;;;;;;;;;;;;;;5076448;28;19954;-77
2022/05/11 02:41:54;;;;;;;;;;;;;;;;;;5078921;28;19994;-79
2022/05/11 02:44:20;;;;;;;;;;;;;;;;;;5080198;28;20267;-78
2022/05/11 02:46:46;;;;;;;;;;;;;;;;;;5080159;28;19954;-74
2022/05/11 02:49:12;;;;;;;;;;;;;;;;;;5080127;28;20361;-76
2022/05/11 02:51:37;;;;;;;;;;;;;;;;;;5080137;28;19916;-77
2022/05/11 02:54:03;;;;;;;;;;;;;;;;;;5080081;28;19905;-78
2022/05/11 02:56:29;;;;;;;;;;;;;;;;;;5080543;28;20260;-76
2022/05/11 02:58:55;;;;;;;;;;;;;;;;;;5078788;28;19904;-77
2022/05/11 03:01:21;;;;;;;;;;;;;;;;;;5080050;28;19978;-77
2022/05/11 03:03:47;;;;;;;;;;;;;;;;;;5080002;28;19915;-74
2022/05/11 03:06:13;;;;;;;;;;;;;;;;;;5079988;28;19942;-77
2022/05/11 03:08:39;;;;;;;;;;;;;;;;;;5080517;28;20359;-75
2022/05/11 03:11:04;;;;;;;;;;;;;;;;;;5080192;28;19905;-76
2022/05/11 03:13:30;;;;;;;;;;;;;;;;;;5079903;28;19910;-75
2022/05/11 03:15:56;;;;;;;;;;;;;;;;;;5079874;28;19908;-74
2022/05/11 03:18:22;;;;;;;;;;;;;;;;;;5080436;28;19904;-74
2022/05/11 03:20:48;;;;;;;;;;;;;;;;;;5080094;28;19912;-76
2022/05/11 03:23:14;;;;;;;;;;;;;;;;;;5078553;28;20284;-75
2022/05/11 03:25:41;;;;;;;;;;;;;;;;;;5078540;28;20302;-74
2022/05/11 03:28:06;;;;;;;;;;;;;;;;;;5080341;28;19911;-74
2022/05/11 03:30:32;;;;;;;;;;;;;;;;;;5079768;28;19927;-77
2022/05/11 03:35:44;;;;;;;;;;;;;;;;;;5079487;28;19914;-75
2022/05/11 03:38:10;;;;;;;;;;;;;;;;;;5080043;28;20360;-75
2022/05/11 03:40:37;;;;;;;;;;;;;;;;;;5079725;28;19904;-76
2022/05/11 03:43:03;;;;;;;;;;;;;;;;;;5080018;28;19950;-75
2022/05/11 03:45:29;;;;;;;;;;;;;;;;;;5078685;28;19912;-76
2022/05/11 03:47:55;;;;;;;;;;;;;;;;;;5079599;28;19908;-75
2022/05/11 03:50:22;;;;;;;;;;;;;;;;;;5079063;28;20404;-75
2022/05/11 03:52:48;;;;;;;;;;;;;;;;;;5074682;28;20360;-77
2022/05/11 03:55:13;;;;;;;;;;;;;;;;;;5076829;28;19908;-75
2022/05/11 03:57:39;;;;;;;;;;;;;;;;;;5076284;28;19904;-79
2022/05/11 04:00:06;;;;;;;;;;;;;;;;;;5076850;28;20402;-77
2022/05/11 04:02:32;;;;;;;;;;;;;;;;;;5076279;28;19912;-76
2022/05/11 04:04:58;;;;;;;;;;;;;;;;;;5076183;28;19912;-78
2022/05/11 04:07:24;;;;;;;;;;;;;;;;;;5076475;28;19904;-75
2022/05/11 04:09:50;;;;;;;;;;;;;;;;;;5076136;28;19905;-75
2022/05/11 04:12:16;;;;;;;;;;;;;;;;;;5076625;28;20364;-76
2022/05/11 04:14:42;;;;;;;;;;;;;;;;;;5076207;28;19908;-76
2022/05/11 04:17:08;;;;;;;;;;;;;;;;;;5075880;28;19934;-79
2022/05/11 04:19:34;;;;;;;;;;;;;;;;;;5076501;28;20349;-75
2022/05/11 04:22:00;;;;;;;;;;;;;;;;;;5076161;28;19938;-75
2022/05/11 04:24:25;;;;;;;;;;;;;;;;;;5065791;28;19916;-78
2022/05/11 04:26:51;;;;;;;;;;;;;;;;;;5056382;28;19908;-76
2022/05/11 04:29:17;;;;;;;;;;;;;;;;;;5055757;28;20320;-76
2022/05/11 04:31:43;;;;;;;;;;;;;;;;;;5037724;28;19904;-75
2022/05/11 04:34:11;;;;;;;;;;;;;;;;;;5055635;28;19912;-76
2022/05/11 04:36:38;;;;;;;;;;;;;;;;;;5037619;28;20002;-77
2022/05/11 04:39:04;;;;;;;;;;;;;;;;;;5055575;28;19912;-74
2022/05/11 04:41:31;;;;;;;;;;;;;;;;;;5056036;28;20261;-74
2022/05/11 04:43:57;;;;;;;;;;;;;;;;;;5037340;28;19913;-75
2022/05/11 04:46:23;;;;;;;;;;;;;;;;;;5055993;28;20239;-78
2022/05/11 04:48:49;;;;;;;;;;;;;;;;;;5037452;28;19905;-75
2022/05/11 04:51:15;;;;;;;;;;;;;;;;;;5037436;28;19905;-76
2022/05/11 04:53:41;;;;;;;;;;;;;;;;;;5055339;28;20332;-78
2022/05/11 04:56:07;;;;;;;;;;;;;;;;;;5055405;28;19908;-75
2022/05/11 04:58:32;;;;;;;;;;;;;;;;;;5055165;28;19927;-75
2022/05/11 05:00:58;;;;;;;;;;;;;;;;;;5055676;28;20250;-75
2022/05/11 05:03:24;;;;;;;;;;;;;;;;;;5037034;28;20320;-75
2022/05/11 05:05:50;;;;;;;;;;;;;;;;;;5054985;28;19905;-75
2022/05/11 05:08:16;;;;;;;;;;;;;;;;;;5054987;28;19904;-78
2022/05/11 05:10:43;;;;;;;;;;;;;;;;;;5055209;28;19912;-75
2022/05/11 05:13:08;;;;;;;;;;;;;;;;;;5054930;28;19936;-78
2022/05/11 05:15:34;;;;;;;;;;;;;;;;;;5054758;28;19973;-77
2022/05/11 05:18:01;;;;;;;;;;;;;;;;;;5036911;28;19911;-75
2022/05/11 05:20:27;;;;;;;;;;;;;;;;;;5054829;28;19908;-75
2022/05/11 05:22:53;;;;;;;;;;;;;;;;;;5054730;28;20276;-75
2022/05/11 05:25:19;;;;;;;;;;;;;;;;;;5067260;28;19917;-74
2022/05/11 05:27:45;;;;;;;;;;;;;;;;;;5074916;28;19931;-75
2022/05/11 05:32:55;;;;;;;;;;;;;;;;;;5074314;28;20340;-76
2022/05/11 05:35:21;;;;;;;;;;;;;;;;;;5074385;28;19947;-75
2022/05/11 05:37:47;;;;;;;;;;;;;;;;;;5074952;28;19930;-74
2022/05/11 05:40:13;;;;;;;;;;;;;;;;;;5074365;28;20353;-76
2022/05/11 05:42:39;;;;;;;;;;;;;;;;;;5074299;28;19904;-77
2022/05/11 05:45:05;;;;;;;;;;;;;;;;;;5074516;28;20045;-77
2022/05/11 05:47:31;;;;;;;;;;;;;;;;;;5074185;28;19966;-76
2022/05/11 05:49:57;;;;;;;;;;;;;;;;;;5074669;28;19965;-74
2022/05/11 05:52:23;;;;;;;;;;;;;;;;;;5074420;28;19946;-76
2022/05/11 05:54:50;;;;;;;;;;;;;;;;;;5074046;28;20360;-75
2022/05/11 05:57:16;;;;;;;;;;;;;;;;;;5072782;28;19905;-79
2022/05/11 05:59:42;;;;;;;;;;;;;;;;;;5072808;28;19911;-76
2022/05/11 06:02:14;;;;;;;;;;;;;;;;;;5074022;28;20272;-76
2022/05/11 06:04:40;;;;;;;;;;;;;;;;;;5074013;28;19908;-77
2022/05/11 06:07:06;;;;;;;;;;;;;;;;;;5072653;28;19904;-75
2022/05/11 06:09:32;;;;;;;;;;;;;;;;;;5074429;28;20439;-75
2022/05/11 06:11:58;;;;;;;;;;;;;;;;;;5073853;28;20006;-77
2022/05/11 06:14:24;;;;;;;;;;;;;;;;;;5073697;28;19991;-76
2022/05/11 06:16:50;;;;;;;;;;;;;;;;;;5073661;28;19950;-76
2022/05/11 06:19:16;;;;;;;;;;;;;;;;;;5073775;28;19957;-75
2022/05/11 06:21:44;;;;;;;;;;;;;;;;;;5074382;28;19908;-75
2022/05/11 06:24:10;;;;;;;;;;;;;;;;;;5065974;28;19916;-77
2022/05/11 06:26:36;;;;;;;;;;;;;;;;;;5035800;28;19987;-77
2022/05/11 06:29:04;;;;;;;;;;;;;;;;;;5053914;28;20280;-77
2022/05/11 06:31:31;;;;;;;;;;;;;;;;;;5053598;28;20392;-75
2022/05/11 06:33:57;;;;;;;;;;;;;;;;;;5054206;28;19915;-74
2022/05/11 06:36:23;;;;;;;;;;;;;;;;;;5053748;28;19909;-77
2022/05/11 06:38:49;;;;;;;;;;;;;;;;;;5053579;28;20357;-75
2022/05/11 06:41:15;;;;;;;;;;;;;;;;;;5053544;28;19904;-74
2022/05/11 06:43:41;;;;;;;;;;;;;;;;;;5053509;28;19905;-74
2022/05/11 06:46:07;;;;;;;;;;;;;;;;;;5035676;28;20335;-76
2022/05/11 06:48:33;;;;;;;;;;;;;;;;;;5054173;28;19909;-76
2022/05/11 06:50:59;;;;;;;;;;;;;;;;;;5053458;28;19911;-74
2022/05/11 06:53:25;;;;;;;;;;;;;;;;;;5053687;28;20046;-76
2022/05/11 07:01:21;;;;;;;;;;;;;;;;;;5053420;28;19912;-77
2022/05/11 07:03:46;;;;;;;;;;;;;;;;;;5053978;28;19905;-76
2022/05/11 07:06:12;;;;;;;;;;;;;;;;;;5053290;28;19931;-76
2022/05/11 07:08:38;;;;;;;;;;;;;;;;;;5053539;28;19995;-77
2022/05/11 07:13:49;;;;;;;;;;;;;;;;;;5053010;28;20297;-75
2022/05/11 07:16:15;;;;;;;;;;;;;;;;;;5053101;28;19909;-74
2022/05/11 07:18:41;;;;;;;;;;;;;;;;;;5053448;28;19905;-76
2022/05/11 07:21:07;;;;;;;;;;;;;;;;;;5035268;28;19911;-75
2022/05/11 07:23:32;;;;;;;;;;;;;;;;;;5053213;28;19911;-74
2022/05/11 07:25:58;;;;;;;;;;;;;;;;;;5035513;28;19908;-77
2022/05/11 07:28:24;;;;;;;;;;;;;;;;;;5056920;28;20371;-75
2022/05/11 07:30:50;;;;;;;;;;;;;;;;;;5056495;28;19912;-76
2022/05/11 07:33:16;;;;;;;;;;;;;;;;;;5057077;28;19995;-78
2022/05/11 07:35:43;;;;;;;;;;;;;;;;;;5056790;28;19916;-77
2022/05/11 07:38:09;;;;;;;;;;;;;;;;;;5056648;28;20000;-74
2022/05/11 07:40:35;;;;;;;;;;;;;;;;;;5056409;28;19984;-75
2022/05/11 07:43:01;;;;;;;;;;;;;;;;;;5056622;28;19914;-76
2022/05/11 07:45:27;;;;;;;;;;;;;;;;;;5056651;28;19975;-81
2022/05/11 07:47:53;;;;;;;;;;;;;;;;;;5038627;28;20358;-76
2022/05/11 07:50:19;;;;;;;;;;;;;;;;;;5056334;28;19993;-76
2022/05/11 07:52:46;;;;;;;;;;;;;;;;;;5056431;28;19904;-76
2022/05/11 07:55:12;;;;;;;;;;;;;;;;;;5038024;28;19916;-76
2022/05/11 08:00:22;;;;;;;;;;;;;;;;;;5055851;28;20015;-77
2022/05/11 08:02:48;;;;;;;;;;;;;;;;;;5037360;28;20288;-79
2022/05/11 08:05:14;;;;;;;;;;;;;;;;;;5055062;28;19912;-76
2022/05/11 08:07:40;;;;;;;;;;;;;;;;;;5055003;28;20277;-77
2022/05/11 08:10:07;;;;;;;;;;;18.80;90.30;;;;;;5054993;28;19905;-78
2022/05/11 08:12:32;;;;;;;;;;;30.70;58.50;;;;;;5054932;28;20365;-77
2022/05/11 08:14:59;;;;;;;;;;;30.90;58.20;;;;;;5055365;28;19916;-79
2022/05/11 08:17:25;;;;;;;;;;;31.30;57.70;;;;;;5056288;28;19950;-73
2022/05/11 08:19:51;;;;;;;;;;;31.70;57.10;;;;;;5055921;28;19912;-76
2022/05/11 08:22:18;;;;;;;;;;;31.70;56.60;;;;;;5055959;28;20296;-76
2022/05/11 08:24:43;;;;;;;;;;;31.60;56.60;;;;;;5055774;28;19917;-75
2022/05/11 08:27:10;;;;;;;;;;;31.10;57.40;;;;;;5055837;28;19904;-74
2022/05/11 08:35:05;;;;;;;;;;;29.60;58.30;;;;;;5055622;28;19994;-75
2022/05/11 08:37:31;;;;;;;;;;;29.10;58.90;;;;;;5037230;28;19974;-74
2022/05/11 08:39:57;;;;;;;;;;;29.20;59.70;;;;;;5055881;28;19909;-77
2022/05/11 08:42:24;;;;;;;;;;;29.40;59.80;;;;;;5055530;28;19909;-77
2022/05/11 08:44:50;;;;;;;;;;;29.30;60.70;;;;;;5055444;28;19904;-75
2022/05/11 08:47:19;;;;;;;;;;;28.60;61.60;;;;;;5037582;28;19905;-77
2022/05/11 08:49:56;;;;;;;;;;;28.40;61.80;;;;;;5055698;28;19992;-75
2022/05/11 08:52:34;;;;;;;;;;;27.70;63.10;;;;;;5055343;28;19905;-78
2022/05/11 08:55:08;;;;;;;;;;;27.70;64.60;;;;;;5055466;28;19956;-77
2022/05/11 08:57:36;;;;;;;;;;;27.90;63.50;;;;;;5037386;28;19944;-75
2022/05/11 09:00:08;;;;;;;;;;;27.50;63.00;;;;;;5055019;28;19912;-77
2022/05/11 09:02:43;;;;;;;;;;;27.50;63.70;;;;;;5055143;28;19912;-77
2022/05/11 09:05:11;;;;;;;;;;;27.40;64.40;;;;;;5055421;28;19954;-74
2022/05/11 09:07:38;;;;;;;;;;;27.80;64.40;;;;;;5055079;28;20315;-79
2022/05/11 09:10:06;;;;;;;;;;;27.30;64.70;;;;;;5055049;28;19911;-74
2022/05/11 09:12:31;;;;;;;;;;;26.20;65.00;;;;;;5055008;28;20357;-76
2022/05/11 09:14:59;;;;;;;;;;;25.80;64.60;;;;;;5036850;28;19935;-76
2022/05/11 09:17:25;;;;;;;;;;;;;;;;;;5036997;28;20324;-75
2022/05/11 09:20:00;;;;;;;;;;;25.80;64.70;;;;;;5055389;28;19900;-75
2022/05/11 09:22:26;;;;;;;;;;;25.70;66.00;;;;;;5036887;28;20373;-77
2022/05/11 09:24:53;;;;;;;;;;;26.00;66.50;;;;;;5054652;28;19924;-78
2022/05/11 09:27:22;;;;;;;;;;;25.90;65.60;;;;;;5055194;28;19962;-75
2022/05/11 09:29:54;;;;;;;;;;;25.90;66.90;;;;;;5054902;28;20392;-76
2022/05/11 09:32:31;;;;;;;;;;;26.40;66.40;;;;;;5054728;28;19912;-76
2022/05/11 09:35:14;;;;;;;;;;;26.30;64.40;;;;;;5055082;28;19954;-76
2022/05/11 09:37:42;;;;;;;;;;;;;;;;;;5054738;28;19959;-76
2022/05/11 09:40:08;;;;;;;;;;;;;;;;;;5054415;28;20322;-74
2022/05/11 09:42:33;;;;;;;;;;;;;;;;;;5054360;28;19905;-76
2022/05/11 09:44:59;;;;;;;;;;;;;;;;;;5054569;28;20041;-76
2022/05/11 09:47:27;;;;;;;;;;;;;;;;;;5054595;28;19905;-78
2022/05/11 09:49:53;;;;;;;;;;;;;;;;;;5053504;28;19999;-76
2022/05/11 09:52:18;;;;;;;;;;;;;;;;;;5054198;28;19947;-76
2022/05/11 09:54:46;;;;;;;;;;;;;;;;;;5053997;28;19911;-76
2022/05/11 09:57:12;;;;;;;;;;;;;;;;;;5054246;28;19987;-79
2022/05/11 09:59:38;;;;;;;;;;;;;;;;;;5053986;28;19915;-77
2022/05/11 10:02:04;;;;;;;;;;;;;;;;;;5054017;28;19912;-76
2022/05/11 10:04:30;;;;;;;;;;;;;;;;;;5054014;28;20376;-74
2022/05/11 10:06:56;;;;;;;;;;;;;;;;;;5054264;28;20377;-75
2022/05/11 10:09:22;;;;;;;;;;;;;;;;;;5053946;28;20067;-74
2022/05/11 10:11:49;;;;;;;;;;;;;;;;;;5035986;28;19908;-77
2022/05/11 10:22:28;;;;;;;;;;;;;;;;;;5053831;28;19974;-78
2022/05/11 10:24:54;;;;;;;;;;;;;;;;;;5053578;28;20381;-78
2022/05/11 10:27:20;;;;;;;;;;;;;;;;;;5053712;28;19905;-77
2022/05/11 10:29:46;;;;;;;;;;;;;;;;;;5054241;28;20278;-76
2022/05/11 10:32:12;;;;;;;;;;;;;;;;;;5053579;28;19950;-78
2022/05/11 10:34:39;;;;;;;;;;;;;;;;;;5053601;28;19908;-79
2022/05/11 10:37:05;;;;;;;;;;;;;;;;;;5053865;28;19908;-78
2022/05/11 10:39:31;;;;;;;;;;;;;;;;;;5053521;28;19905;-79
2022/05/11 10:41:57;;;;;;;;;;;;;;;;;;5053767;28;19911;-79
2022/05/11 10:44:23;;;;;;;;;;;;;;;;;;5053473;28;19904;-77
2022/05/11 10:46:49;;;;;;;;;;;;;;;;;;5053747;28;19905;-79
2022/05/11 10:49:14;;;;;;;;;;;;;;;;;;5053510;28;19908;-79
2022/05/11 10:51:40;;;;;;;;;;;;;;;;;;5053692;28;19912;-77
2022/05/11 10:54:06;;;;;;;;;;;;;;;;;;5053659;28;19911;-78
2022/05/11 10:56:33;;;;;;;;;;;;;;;;;;5053344;28;20003;-79
2022/05/11 10:58:59;;;;;;;;;;;;;;;;;;5035553;28;20345;-79
2022/05/11 11:01:25;;;;;;;;;;;;;;;;;;5056277;28;19951;-77
2022/05/11 11:03:51;;;;;;;;;;;;;;;;;;5057650;28;19909;-77
2022/05/11 11:09:01;;;;;;;;;;;;;;;;;;5057061;28;20015;-77
2022/05/11 11:11:27;;;;;;;;;;;;;;;;;;5057243;28;19963;-78
2022/05/11 11:13:54;;;;;;;;;;;;;;;;;;5057467;28;20061;-78
2022/05/11 11:16:20;;;;;;;;;;;;;;;;;;5057325;28;19931;-78
2022/05/11 11:18:46;;;;;;;;;;;;;;;;;;5057391;28;20357;-77
2022/05/11 11:21:12;;;;;;;;;;;;;;;;;;5057087;28;19993;-79
2022/05/11 11:23:38;;;;;;;;;;;;;;;;;;5056856;28;20343;-80
2022/05/11 11:26:04;;;;;;;;;;;;;;;;;;5057605;28;19947;-77
2022/05/11 11:28:31;;;;;;;;;;;;;;;;;;5056967;28;19940;-77
2022/05/11 11:30:57;;;;;;;;;;;;;;;;;;5057504;28;20383;-79
2022/05/11 11:33:23;;;;;;;;;;;;;;;;;;5038912;28;19952;-79
2022/05/11 11:35:49;;;;;;;;;;;;;;;;;;5056748;28;19931;-80
2022/05/11 11:38:15;;;;;;;;;;;;;;;;;;5056718;28;20353;-80
2022/05/11 11:40:41;;;;;;;;;;;;;;;;;;5056667;28;19971;-77
2022/05/11 11:43:49;;;;;;;;;;;;;;;;;;5038761;28;20316;-76
2022/05/11 11:45:56;;;;;;;;;;;;;;;;;;5048619;28;19904;-79
2022/05/11 11:48:22;;;;;;;;;;;;;;;;;;5056827;28;19996;-79
2022/05/11 11:50:48;;;;;;;;;;;;;;;;;;5056461;28;20323;-80
2022/05/11 11:53:14;;;;;;;;;;;;;;;;;;5056484;28;19912;-78
2022/05/11 11:55:40;;;;;;;;;;;;;;;;;;5056374;28;19962;-75
2022/05/11 11:58:06;;;;;;;;;;;;;;;;;;5056977;28;19919;-77
2022/05/11 12:00:32;;;;;;;;;;;;;;;;;;5056327;28;19905;-77
2022/05/11 12:02:58;;;;;;;;;;;;;;;;;;5056866;28;19908;-78
2022/05/11 12:05:24;;;;;;;;;;;;;;;;;;5056275;28;19940;-77
2022/05/11 12:16:03;;;;;;;;;;;;;;;;;;5055953;28;20384;-77
2022/05/11 12:18:29;;;;;;;;;;;;;;;;;;5056262;28;19908;-78
2022/05/11 12:20:55;;;;;;;;;;;;;;;;;;5055922;28;19912;-77
2022/05/11 12:23:21;;;;;;;;;;;;;;;;;;5056217;28;19904;-79
2022/05/11 12:25:47;;;;;;;;;;;;;;;;;;5056177;28;19911;-78
2022/05/11 12:28:13;;;;;;;;;;;;;;;;;;5055778;28;19905;-80
2022/05/11 12:30:39;;;;;;;;;;;;;;;;;;5055604;28;19958;-75
2022/05/11 12:33:05;;;;;;;;;;;;;;;;;;5055987;28;19950;-77
2022/05/11 12:35:31;;;;;;;;;;;;;;;;;;5037733;28;19986;-77
2022/05/11 12:37:57;;;;;;;;;;;;;;;;;;5055664;28;19904;-80
2022/05/11 12:40:23;;;;;;;;;;;;;;;;;;5037686;28;20371;-77
2022/05/11 12:42:49;;;;;;;;;;;;;;;;;;5056208;28;19955;-79
2022/05/11 12:45:14;;;;;;;;;;;;;;;;;;5055775;28;19954;-76
2022/05/11 12:47:40;;;;;;;;;;;;;;;;;;5055433;28;20257;-76
2022/05/11 12:50:06;;;;;;;;;;;;;;;;;;5055460;28;19912;-79
2022/05/11 12:52:34;;;;;;;;;;;;;;;;;;5055658;28;19905;-78
2022/05/11 12:55:01;;;;;;;;;;;;;;;;;;5055259;28;19905;-78
2022/05/11 12:57:27;;;;;;;;;;;;;;;;;;5055602;28;19904;-77
2022/05/11 12:59:52;;;;;;;;;;;;;;;;;;5055231;28;20000;-77
2022/05/11 13:02:18;;;;;;;;;;;;;;;;;;5055229;28;20372;-78
2022/05/11 13:04:44;;;;;;;;;;;;;;;;;;5055706;28;20361;-77
2022/05/11 13:07:10;;;;;;;;;;;;;;;;;;5055081;28;19940;-77
2022/05/11 13:09:36;;;;;;;;;;;;;;;;;;5037139;28;19927;-80
2022/05/11 13:12:02;;;;;;;;;;;;;;;;;;5055027;28;19913;-77
2022/05/11 13:14:28;;;;;;;;;;;;;;;;;;5037084;28;19909;-77
2022/05/11 13:16:54;;;;;;;;;;;;;;;;;;5054797;28;19950;-77
2022/05/11 13:19:20;;;;;;;;;;;;;;;;;;5055131;28;19955;-77
2022/05/11 13:21:46;;;;;;;;;;;;;;;;;;5055087;28;19905;-77
2022/05/11 13:24:12;;;;;;;;;;;;;;;;;;5054689;28;20400;-78
2022/05/11 13:26:38;;;;;;;;;;;;;;;;;;5036844;28;19909;-78
2022/05/11 13:29:05;;;;;;;;;;;;;;;;;;5054634;28;20439;-78
2022/05/11 13:31:31;;;;;;;;;;;;;;;;;;5055175;28;19905;-76
2022/05/11 13:33:57;;;;;;;;;;;;;;;;;;5054887;28;19948;-77
2022/05/11 13:36:23;;;;;;;;;;;;;;;;;;5054495;28;20003;-78
2022/05/11 13:38:49;;;;;;;;;;;;;;;;;;5054539;28;19947;-79
2022/05/11 13:41:15;;;;;;;;;;;;;;;;;;5036594;28;19958;-79
2022/05/11 13:43:41;;;;;;;;;;;;;;;;;;5054358;28;19908;-77
2022/05/11 13:46:07;;;;;;;;;;;;;;;;;;5054256;28;19904;-77
2022/05/11 13:48:32;;;;;;;;;;;;;;;;;;5054303;28;19912;-76
2022/05/11 13:50:58;;;;;;;;;;;;;;;;;;5054807;28;19916;-78
2022/05/11 13:53:24;;;;;;;;;;;;;;;;;;5054208;28;19904;-77
2022/05/11 13:55:50;;;;;;;;;;;;;;;;;;5054382;28;19932;-79
2022/05/11 13:58:16;;;;;;;;;;;;;;;;;;5054394;28;19908;-78
2022/05/11 14:00:42;;;;;;;;;;;;;;;;;;5054655;28;19997;-77
2022/05/11 14:03:08;;;;;;;;;;;;;;;;;;5054061;28;19908;-77
2022/05/11 14:05:34;;;;;;;;;;;;;;;;;;5054282;28;20273;-78
2022/05/11 14:08:00;;;;;;;;;;;;;;;;;;5036081;28;19988;-78
2022/05/11 14:10:26;;;;;;;;;;;;;;;;;;5053947;28;20358;-77
2022/05/11 14:12:52;;;;;;;;;;;;;;;;;;5036018;28;19905;-78
2022/05/11 14:15:18;;;;;;;;;;;;;;;;;;5053752;28;20434;-78
2022/05/11 14:17:44;;;;;;;;;;;;;;;;;;5053852;28;19940;-77
2022/05/11 14:20:10;;;;;;;;;;;;;;;;;;5053819;28;20277;-77
2022/05/11 14:22:36;;;;;;;;;;;;;;;;;;5053812;28;19958;-77
2022/05/11 14:25:02;;;;;;;;;;;;;;;;;;5053638;28;19975;-79
2022/05/11 14:27:28;;;;;;;;;;;;;;;;;;5053707;28;19908;-76
2022/05/11 14:29:54;;;;;;;;;;;;;;;;;;5054026;28;20242;-78
2022/05/11 14:32:20;;;;;;;;;;;;;;;;;;5053577;28;19904;-76
2022/05/11 14:34:45;;;;;;;;;;;;;;;;;;5053445;28;19995;-78
2022/05/11 14:37:11;;;;;;;;;;;;;;;;;;5053802;28;19908;-76
2022/05/11 14:39:37;;;;;;;;;;;;;;;;;;5053578;28;19905;-79
2022/05/11 14:42:03;;;;;;;;;;;;;;;;;;5053544;28;19912;-76
2022/05/11 14:44:29;;;;;;;;;;;;;;;;;;5053822;28;19909;-77
2022/05/11 14:46:56;;;;;;;;;;;;;;;;;;5053791;28;20336;-77
2022/05/11 14:49:22;;;;;;;;;;;;;;;;;;5054063;28;19904;-76
2022/05/11 14:51:48;;;;;;;;;;;;;;;;;;5053474;28;19908;-78
2022/05/11 14:54:14;;;;;;;;;;;;;;;;;;5053672;28;19904;-80
2022/05/11 14:56:40;;;;;;;;;;;;;;;;;;5053346;28;19908;-77
2022/05/11 15:01:57;;;;;;;;;;;;;;;;;;5053748;28;19927;-78
2022/05/11 15:04:42;;;;;;;;;;;26.00;65.30;;;;;;5053672;28;19911;-78
2022/05/11 15:07:08;;;;;;;;;;;24.20;79.70;;;;;;5053686;28;19948;-77
2022/05/11 15:09:34;;;;;;;;;;;;;;;;;;5053321;28;19928;-79
2022/05/11 15:14:45;;;;;;;;;;;;;;;;;;5053516;28;19911;-76
2022/05/11 15:17:11;;;;;;;;;;;;;;;;;;5035250;28;20003;-77
2022/05/11 15:19:37;;;;;;;;;;;;;;;;;;5053460;28;19932;-76
2022/05/11 15:22:03;;;;;;;;;;;;;;;;;;5053129;28;19959;-76
2022/05/11 15:24:29;;;;;;;;;;;;;;;;;;5052978;28;19970;-79
2022/05/11 15:26:56;;;;;;;;;;;;;;;;;;5053344;28;19905;-75
2022/05/11 15:29:22;;;;;;;;;;;;;;;;;;5053089;28;19904;-76
2022/05/11 15:31:48;;;;;;;;;;;;;;;;;;5053121;28;19990;-79
2022/05/11 15:34:14;;;;;;;;;;;;;;;;;;5053690;28;20399;-78
2022/05/11 15:36:39;;;;;;;;;;;;;;;;;;5053235;28;19944;-77
2022/05/11 15:39:05;;;;;;;;;;;;;;;;;;5053016;28;19948;-78
2022/05/11 15:41:31;;;;;;;;;;;;;;;;;;5035091;28;19905;-78
2022/05/11 15:43:57;;;;;;;;;;;;;;;;;;5053341;28;19972;-79
2022/05/11 15:46:23;;;;;;;;;;;;;;;;;;5035075;28;19912;-77
2022/05/11 15:48:49;;;;;;;;;;;;;;;;;;5038234;28;20337;-77
2022/05/11 15:51:15;;;;;;;;;;;;;;;;;;5038595;28;20281;-76
2022/05/11 15:53:41;;;;;;;;;;;;;;;;;;5056855;28;19905;-77
2022/05/11 15:56:07;;;;;;;;;;;;;;;;;;5056396;28;19956;-79
2022/05/11 15:58:33;;;;;;;;;;;;;;;;;;5038553;28;20365;-79
2022/05/11 16:00:59;;;;;;;;;;;;;;;;;;5056346;28;19905;-77
2022/05/11 16:03:25;;;;;;;;;;;;;;;;;;5056979;28;19905;-79
2022/05/11 16:05:53;;;;;;;;;;;;;;;;;;5056549;28;19904;-75
2022/05/11 16:08:19;;;;;;;;;;;;;;;;;;5056455;28;19905;-76
2022/05/11 16:10:45;;;;;;;;;;;;;;;;;;5038283;28;19911;-78
2022/05/11 16:13:11;;;;;;;;;;;;;;;;;;5056132;28;19904;-78
2022/05/11 16:15:37;;;;;;;;;;;;;;;;;;5038077;28;19955;-75
2022/05/11 16:20:48;;;;;;;;;;;;;;;;;;5056088;28;19982;-76
2022/05/11 16:23:14;;;;;;;;;;;;;;;;;;5037989;28;19909;-78
2022/05/11 16:25:39;;;;;;;;;;;;;;;;;;5055519;28;19920;-76
2022/05/11 16:28:05;;;;;;;;;;;;;;;;;;5056087;28;20280;-76
2022/05/11 16:30:33;;;;;;;;;;;;;;;;;;5056067;28;19912;-77
2022/05/11 16:32:59;;;;;;;;;;;;;;;;;;5055808;28;19904;-77
2022/05/11 16:35:25;;;;;;;;;;;;;;;;;;5055673;28;20376;-76
2022/05/11 16:37:51;;;;;;;;;;;;;;;;;;5055996;28;19904;-78
2022/05/11 16:40:17;;;;;;;;;;;;;;;;;;5055668;28;19905;-79
2022/05/11 16:42:43;;;;;;;;;;;;;;;;;;5055861;28;19927;-75
2022/05/11 16:45:08;;;;;;;;;;;;;;;;;;5055800;28;19909;-78
2022/05/11 16:47:34;;;;;;;;;;;;;;;;;;5055486;28;19912;-77
2022/05/11 16:50:00;;;;;;;;;;;;;;;;;;5055712;28;19955;-79
2022/05/11 16:52:26;;;;;;;;;;;;;;;;;;5055649;28;19905;-75
2022/05/11 16:54:53;;;;;;;;;;;;;;;;;;5055931;28;19911;-77
2022/05/11 16:57:19;;;;;;;;;;;;;;;;;;5055262;28;19912;-77
2022/05/11 16:59:44;;;;;;;;;;;;;;;;;;5054907;28;20000;-76
2022/05/11 17:02:10;;;;;;;;;;;;;;;;;;5055797;28;20276;-79
2022/05/11 17:04:36;;;;;;;;;;;;;;;;;;5055451;28;19904;-76
2022/05/11 17:07:02;;;;;;;;;;;;;;;;;;5055111;28;20312;-78
2022/05/11 17:09:28;;;;;;;;;;;;;;;;;;5055052;28;19908;-79
2022/05/11 17:11:54;;;;;;;;;;;;;;;;;;5055322;28;19994;-75
2022/05/11 17:14:20;;;;;;;;;;;;;;;;;;5037096;28;20312;-76
2022/05/11 17:16:46;;;;;;;;;;;;;;;;;;5036868;28;19963;-77
2022/05/11 17:19:12;;;;;;;;;;;;;;;;;;5055137;28;19943;-76
2022/05/11 17:21:39;;;;;;;;;;;;;;;;;;5054798;28;20373;-77